sensor_id;sensor_type;location;lat;lon;timestamp;P1;durP1;ratioP1;P2;durP2;ratioP2
36593;SDS011;22603;47.900;8.146;2022-12-07T00:02:26;12.10;;;4.20;;
36593;SDS011;22603;47.900;8.146;2022-12-07T00:05:15;11.53;;;4.23;;
36593;SDS011;22603;47.900;8.146;2022-12-07T00:08:03;10.33;;;3.50;;
36593;SDS011;22603;47.900;8.146;2022-12-07T00:10:51;11.00;;;3.73;;
36593;SDS011;22603;47.900;8.146;2022-12-07T00:13:38;10.03;;;3.67;;
36593;SDS011;22603;47.900;8.146;2022-12-07T00:16:26;9.10;;;4.00;;
36593;SDS011;22603;47.900;8.146;2022-12-07T00:19:16;9.70;;;3.63;;
36593;SDS011;22603;47.900;8.146;2022-12-07T00:22:04;10.87;;;2.93;;
36593;SDS011;22603;47.900;8.146;2022-12-07T00:24:51;9.07;;;2.87;;
36593;SDS011;22603;47.900;8.146;2022-12-07T00:27:38;8.90;;;3.37;;
36593;SDS011;22603;47.900;8.146;2022-12-07T00:30:26;9.77;;;3.70;;
36593;SDS011;22603;47.900;8.146;2022-12-07T00:33:14;10.00;;;3.70;;
36593;SDS011;22603;47.900;8.146;2022-12-07T00:36:01;11.53;;;3.67;;
36593;SDS011;22603;47.900;8.146;2022-12-07T00:38:51;10.33;;;3.43;;
36593;SDS011;22603;47.900;8.146;2022-12-07T00:41:38;12.23;;;3.90;;
36593;SDS011;22603;47.900;8.146;2022-12-07T00:44:26;9.27;;;3.70;;
36593;SDS011;22603;47.900;8.146;2022-12-07T00:47:13;6.90;;;2.80;;
36593;SDS011;22603;47.900;8.146;2022-12-07T00:50:00;9.13;;;3.50;;
36593;SDS011;22603;47.900;8.146;2022-12-07T00:52:48;6.93;;;2.67;;
36593;SDS011;22603;47.900;8.146;2022-12-07T00:55:36;7.70;;;3.03;;
36593;SDS011;22603;47.900;8.146;2022-12-07T00:58:23;8.50;;;2.90;;
36593;SDS011;22603;47.900;8.146;2022-12-07T01:01:10;7.67;;;2.40;;
36593;SDS011;22603;47.900;8.146;2022-12-07T01:03:58;9.80;;;3.03;;
36593;SDS011;22603;47.900;8.146;2022-12-07T01:06:46;7.00;;;2.67;;
36593;SDS011;22603;47.900;8.146;2022-12-07T01:09:33;6.63;;;2.43;;
36593;SDS011;22603;47.900;8.146;2022-12-07T01:12:22;6.13;;;2.33;;
36593;SDS011;22603;47.900;8.146;2022-12-07T01:15:10;4.90;;;2.10;;
36593;SDS011;22603;47.900;8.146;2022-12-07T01:17:57;6.43;;;2.00;;
36593;SDS011;22603;47.900;8.146;2022-12-07T01:20:44;6.10;;;2.37;;
36593;SDS011;22603;47.900;8.146;2022-12-07T01:23:43;5.47;;;2.03;;
36593;SDS011;22603;47.900;8.146;2022-12-07T01:26:31;6.03;;;2.13;;
36593;SDS011;22603;47.900;8.146;2022-12-07T01:29:20;5.80;;;2.20;;
36593;SDS011;22603;47.900;8.146;2022-12-07T01:32:07;4.03;;;1.80;;
36593;SDS011;22603;47.900;8.146;2022-12-07T01:34:54;6.60;;;2.67;;
36593;SDS011;22603;47.900;8.146;2022-12-07T01:37:41;7.23;;;2.07;;
36593;SDS011;22603;47.900;8.146;2022-12-07T01:40:28;9.10;;;2.53;;
36593;SDS011;22603;47.900;8.146;2022-12-07T01:43:16;10.03;;;3.57;;
36593;SDS011;22603;47.900;8.146;2022-12-07T01:46:06;8.37;;;2.90;;
36593;SDS011;22603;47.900;8.146;2022-12-07T01:48:53;7.23;;;2.80;;
36593;SDS011;22603;47.900;8.146;2022-12-07T01:51:40;9.03;;;3.20;;
36593;SDS011;22603;47.900;8.146;2022-12-07T01:54:29;9.00;;;3.27;;
36593;SDS011;22603;47.900;8.146;2022-12-07T01:57:17;6.57;;;2.47;;
36593;SDS011;22603;47.900;8.146;2022-12-07T02:00:06;8.40;;;3.07;;
36593;SDS011;22603;47.900;8.146;2022-12-07T02:02:55;8.97;;;3.30;;
36593;SDS011;22603;47.900;8.146;2022-12-07T02:05:50;9.50;;;3.63;;
36593;SDS011;22603;47.900;8.146;2022-12-07T02:08:39;9.77;;;3.67;;
36593;SDS011;22603;47.900;8.146;2022-12-07T02:11:27;6.23;;;2.90;;
36593;SDS011;22603;47.900;8.146;2022-12-07T02:14:15;6.70;;;2.60;;
36593;SDS011;22603;47.900;8.146;2022-12-07T02:17:05;8.97;;;3.20;;
36593;SDS011;22603;47.900;8.146;2022-12-07T02:26:33;9.97;;;3.47;;
36593;SDS011;22603;47.900;8.146;2022-12-07T02:29:44;10.77;;;3.20;;
36593;SDS011;22603;47.900;8.146;2022-12-07T02:32:41;8.97;;;3.20;;
36593;SDS011;22603;47.900;8.146;2022-12-07T02:35:33;9.97;;;3.60;;
36593;SDS011;22603;47.900;8.146;2022-12-07T02:38:26;9.63;;;3.40;;
36593;SDS011;22603;47.900;8.146;2022-12-07T02:41:22;8.60;;;3.03;;
36593;SDS011;22603;47.900;8.146;2022-12-07T02:44:15;8.00;;;3.00;;
36593;SDS011;22603;47.900;8.146;2022-12-07T02:47:07;9.50;;;3.43;;
36593;SDS011;22603;47.900;8.146;2022-12-07T02:49:58;8.57;;;2.50;;
36593;SDS011;22603;47.900;8.146;2022-12-07T02:52:45;7.40;;;2.57;;
36593;SDS011;22603;47.900;8.146;2022-12-07T02:55:33;6.60;;;2.73;;
36593;SDS011;22603;47.900;8.146;2022-12-07T02:58:27;8.90;;;2.97;;
36593;SDS011;22603;47.900;8.146;2022-12-07T03:01:24;6.93;;;2.33;;
36593;SDS011;22603;47.900;8.146;2022-12-07T03:04:21;9.93;;;2.87;;
36593;SDS011;22603;47.900;8.146;2022-12-07T03:07:21;8.13;;;2.80;;
36593;SDS011;22603;47.900;8.146;2022-12-07T03:10:17;11.27;;;4.07;;
36593;SDS011;22603;47.900;8.146;2022-12-07T03:13:09;21.77;;;4.70;;
36593;SDS011;22603;47.900;8.146;2022-12-07T03:16:04;10.57;;;3.40;;
36593;SDS011;22603;47.900;8.146;2022-12-07T03:18:55;11.83;;;4.17;;
36593;SDS011;22603;47.900;8.146;2022-12-07T03:21:51;18.53;;;4.13;;
36593;SDS011;22603;47.900;8.146;2022-12-07T03:24:45;17.83;;;3.60;;
36593;SDS011;22603;47.900;8.146;2022-12-07T03:27:39;13.07;;;3.93;;
36593;SDS011;22603;47.900;8.146;2022-12-07T03:30:32;9.83;;;2.97;;
36593;SDS011;22603;47.900;8.146;2022-12-07T03:33:24;10.57;;;3.30;;
36593;SDS011;22603;47.900;8.146;2022-12-07T03:36:17;14.37;;;4.10;;
36593;SDS011;22603;47.900;8.146;2022-12-07T03:39:12;12.50;;;4.33;;
36593;SDS011;22603;47.900;8.146;2022-12-07T03:42:07;11.37;;;2.83;;
36593;SDS011;22603;47.900;8.146;2022-12-07T03:44:56;11.83;;;4.07;;
36593;SDS011;22603;47.900;8.146;2022-12-07T03:47:45;21.10;;;5.43;;
36593;SDS011;22603;47.900;8.146;2022-12-07T03:50:38;21.60;;;4.77;;
36593;SDS011;22603;47.900;8.146;2022-12-07T03:53:31;12.73;;;4.07;;
36593;SDS011;22603;47.900;8.146;2022-12-07T03:56:25;11.77;;;3.37;;
36593;SDS011;22603;47.900;8.146;2022-12-07T03:59:14;12.47;;;4.00;;
36593;SDS011;22603;47.900;8.146;2022-12-07T04:02:03;14.17;;;3.90;;
36593;SDS011;22603;47.900;8.146;2022-12-07T04:04:51;12.57;;;3.80;;
36593;SDS011;22603;47.900;8.146;2022-12-07T04:07:40;15.73;;;5.67;;
36593;SDS011;22603;47.900;8.146;2022-12-07T04:10:27;12.80;;;3.97;;
36593;SDS011;22603;47.900;8.146;2022-12-07T04:13:16;10.73;;;3.27;;
36593;SDS011;22603;47.900;8.146;2022-12-07T04:16:03;9.87;;;3.80;;
36593;SDS011;22603;47.900;8.146;2022-12-07T04:18:50;10.17;;;3.00;;
36593;SDS011;22603;47.900;8.146;2022-12-07T04:21:38;10.30;;;4.20;;
36593;SDS011;22603;47.900;8.146;2022-12-07T04:24:25;5.67;;;2.37;;
36593;SDS011;22603;47.900;8.146;2022-12-07T04:27:13;9.93;;;3.10;;
36593;SDS011;22603;47.900;8.146;2022-12-07T04:30:02;12.97;;;3.57;;
36593;SDS011;22603;47.900;8.146;2022-12-07T04:32:50;10.57;;;3.73;;
36593;SDS011;22603;47.900;8.146;2022-12-07T04:35:37;9.10;;;3.23;;
36593;SDS011;22603;47.900;8.146;2022-12-07T04:38:24;11.77;;;3.63;;
36593;SDS011;22603;47.900;8.146;2022-12-07T04:41:12;9.67;;;2.93;;
36593;SDS011;22603;47.900;8.146;2022-12-07T04:44:00;7.77;;;2.93;;
36593;SDS011;22603;47.900;8.146;2022-12-07T04:46:49;10.10;;;3.30;;
36593;SDS011;22603;47.900;8.146;2022-12-07T04:49:37;11.50;;;2.53;;
36593;SDS011;22603;47.900;8.146;2022-12-07T04:52:24;11.67;;;3.10;;
36593;SDS011;22603;47.900;8.146;2022-12-07T04:55:11;6.40;;;2.80;;
36593;SDS011;22603;47.900;8.146;2022-12-07T04:57:58;6.90;;;2.37;;
36593;SDS011;22603;47.900;8.146;2022-12-07T05:00:45;4.87;;;2.03;;
36593;SDS011;22603;47.900;8.146;2022-12-07T05:03:34;7.67;;;2.03;;
36593;SDS011;22603;47.900;8.146;2022-12-07T05:06:22;6.20;;;1.57;;
36593;SDS011;22603;47.900;8.146;2022-12-07T05:09:09;7.07;;;2.57;;
36593;SDS011;22603;47.900;8.146;2022-12-07T05:11:57;4.63;;;1.50;;
36593;SDS011;22603;47.900;8.146;2022-12-07T05:14:45;4.80;;;1.80;;
36593;SDS011;22603;47.900;8.146;2022-12-07T05:17:33;3.93;;;1.57;;
36593;SDS011;22603;47.900;8.146;2022-12-07T05:20:22;4.07;;;1.73;;
36593;SDS011;22603;47.900;8.146;2022-12-07T05:23:10;7.50;;;2.43;;
36593;SDS011;22603;47.900;8.146;2022-12-07T05:25:57;8.10;;;1.87;;
36593;SDS011;22603;47.900;8.146;2022-12-07T05:28:44;7.73;;;2.23;;
36593;SDS011;22603;47.900;8.146;2022-12-07T05:31:31;5.70;;;1.83;;
36593;SDS011;22603;47.900;8.146;2022-12-07T05:34:19;8.67;;;2.50;;
36593;SDS011;22603;47.900;8.146;2022-12-07T05:37:07;7.57;;;2.20;;
36593;SDS011;22603;47.900;8.146;2022-12-07T05:39:54;5.87;;;1.93;;
36593;SDS011;22603;47.900;8.146;2022-12-07T05:42:42;6.20;;;2.40;;
36593;SDS011;22603;47.900;8.146;2022-12-07T05:45:29;6.83;;;2.37;;
36593;SDS011;22603;47.900;8.146;2022-12-07T05:48:17;5.10;;;1.93;;
36593;SDS011;22603;47.900;8.146;2022-12-07T05:51:03;9.20;;;1.83;;
36593;SDS011;22603;47.900;8.146;2022-12-07T05:53:52;9.17;;;2.53;;
36593;SDS011;22603;47.900;8.146;2022-12-07T05:56:39;6.03;;;2.20;;
36593;SDS011;22603;47.900;8.146;2022-12-07T05:59:26;7.50;;;2.63;;
36593;SDS011;22603;47.900;8.146;2022-12-07T06:02:14;8.00;;;2.10;;
36593;SDS011;22603;47.900;8.146;2022-12-07T06:05:04;7.07;;;2.33;;
36593;SDS011;22603;47.900;8.146;2022-12-07T06:07:57;5.73;;;2.10;;
36593;SDS011;22603;47.900;8.146;2022-12-07T06:10:51;7.53;;;2.57;;
36593;SDS011;22603;47.900;8.146;2022-12-07T06:13:59;6.80;;;2.47;;
36593;SDS011;22603;47.900;8.146;2022-12-07T06:16:45;7.00;;;2.27;;
36593;SDS011;22603;47.900;8.146;2022-12-07T06:19:32;6.93;;;2.60;;
36593;SDS011;22603;47.900;8.146;2022-12-07T06:22:20;6.60;;;2.40;;
36593;SDS011;22603;47.900;8.146;2022-12-07T06:25:08;4.93;;;1.83;;
36593;SDS011;22603;47.900;8.146;2022-12-07T06:27:56;5.27;;;1.70;;
36593;SDS011;22603;47.900;8.146;2022-12-07T06:30:43;5.87;;;2.13;;
36593;SDS011;22603;47.900;8.146;2022-12-07T06:33:31;8.77;;;2.80;;
36593;SDS011;22603;47.900;8.146;2022-12-07T06:36:18;5.50;;;2.00;;
36593;SDS011;22603;47.900;8.146;2022-12-07T06:39:11;9.20;;;3.17;;
36593;SDS011;22603;47.900;8.146;2022-12-07T06:41:58;7.03;;;3.17;;
36593;SDS011;22603;47.900;8.146;2022-12-07T06:44:47;7.60;;;2.70;;
36593;SDS011;22603;47.900;8.146;2022-12-07T06:47:34;6.40;;;2.50;;
36593;SDS011;22603;47.900;8.146;2022-12-07T06:50:27;7.03;;;2.07;;
36593;SDS011;22603;47.900;8.146;2022-12-07T06:53:14;6.47;;;2.50;;
36593;SDS011;22603;47.900;8.146;2022-12-07T06:56:01;7.40;;;3.13;;
36593;SDS011;22603;47.900;8.146;2022-12-07T06:58:48;9.50;;;3.07;;
36593;SDS011;22603;47.900;8.146;2022-12-07T07:01:37;7.30;;;2.10;;
36593;SDS011;22603;47.900;8.146;2022-12-07T07:04:24;7.80;;;2.73;;
36593;SDS011;22603;47.900;8.146;2022-12-07T07:07:11;8.97;;;2.70;;
36593;SDS011;22603;47.900;8.146;2022-12-07T07:09:59;9.73;;;2.87;;
36593;SDS011;22603;47.900;8.146;2022-12-07T07:12:46;8.43;;;3.10;;
36593;SDS011;22603;47.900;8.146;2022-12-07T07:15:40;7.87;;;2.83;;
36593;SDS011;22603;47.900;8.146;2022-12-07T07:18:29;10.03;;;3.50;;
36593;SDS011;22603;47.900;8.146;2022-12-07T07:21:16;9.53;;;3.03;;
36593;SDS011;22603;47.900;8.146;2022-12-07T07:24:03;8.07;;;2.93;;
36593;SDS011;22603;47.900;8.146;2022-12-07T07:26:51;8.63;;;2.97;;
36593;SDS011;22603;47.900;8.146;2022-12-07T07:29:39;8.23;;;3.53;;
36593;SDS011;22603;47.900;8.146;2022-12-07T07:32:26;7.43;;;2.47;;
36593;SDS011;22603;47.900;8.146;2022-12-07T07:35:15;4.17;;;1.63;;
36593;SDS011;22603;47.900;8.146;2022-12-07T07:38:02;5.50;;;2.20;;
36593;SDS011;22603;47.900;8.146;2022-12-07T07:40:49;8.60;;;3.10;;
36593;SDS011;22603;47.900;8.146;2022-12-07T07:43:37;6.13;;;2.13;;
36593;SDS011;22603;47.900;8.146;2022-12-07T07:46:24;4.77;;;1.73;;
36593;SDS011;22603;47.900;8.146;2022-12-07T07:49:11;5.93;;;2.27;;
36593;SDS011;22603;47.900;8.146;2022-12-07T07:52:00;6.77;;;2.00;;
36593;SDS011;22603;47.900;8.146;2022-12-07T07:54:47;4.37;;;1.87;;
36593;SDS011;22603;47.900;8.146;2022-12-07T07:57:34;6.03;;;2.10;;
36593;SDS011;22603;47.900;8.146;2022-12-07T08:00:21;3.87;;;1.77;;
36593;SDS011;22603;47.900;8.146;2022-12-07T08:03:09;8.20;;;2.30;;
36593;SDS011;22603;47.900;8.146;2022-12-07T08:05:56;6.30;;;2.40;;
36593;SDS011;22603;47.900;8.146;2022-12-07T08:08:44;8.60;;;2.40;;
36593;SDS011;22603;47.900;8.146;2022-12-07T08:11:31;14.37;;;3.00;;
36593;SDS011;22603;47.900;8.146;2022-12-07T08:14:18;8.27;;;2.37;;
36593;SDS011;22603;47.900;8.146;2022-12-07T08:17:06;6.90;;;2.13;;
36593;SDS011;22603;47.900;8.146;2022-12-07T08:19:53;5.40;;;2.27;;
36593;SDS011;22603;47.900;8.146;2022-12-07T08:22:41;5.70;;;1.97;;
36593;SDS011;22603;47.900;8.146;2022-12-07T08:25:30;5.23;;;2.20;;
36593;SDS011;22603;47.900;8.146;2022-12-07T08:28:18;4.00;;;1.50;;
36593;SDS011;22603;47.900;8.146;2022-12-07T08:31:05;6.07;;;1.93;;
36593;SDS011;22603;47.900;8.146;2022-12-07T08:33:55;5.23;;;2.07;;
36593;SDS011;22603;47.900;8.146;2022-12-07T08:36:42;7.47;;;2.50;;
36593;SDS011;22603;47.900;8.146;2022-12-07T08:39:29;4.63;;;1.77;;
36593;SDS011;22603;47.900;8.146;2022-12-07T08:42:19;5.13;;;1.90;;
36593;SDS011;22603;47.900;8.146;2022-12-07T08:45:09;6.63;;;2.20;;
36593;SDS011;22603;47.900;8.146;2022-12-07T08:47:59;4.83;;;1.70;;
36593;SDS011;22603;47.900;8.146;2022-12-07T08:50:52;10.77;;;4.13;;
36593;SDS011;22603;47.900;8.146;2022-12-07T08:53:39;5.17;;;1.87;;
36593;SDS011;22603;47.900;8.146;2022-12-07T08:56:27;5.53;;;2.30;;
36593;SDS011;22603;47.900;8.146;2022-12-07T08:59:16;5.95;;;1.98;;
36593;SDS011;22603;47.900;8.146;2022-12-07T09:02:08;4.45;;;1.80;;
36593;SDS011;22603;47.900;8.146;2022-12-07T09:04:55;6.32;;;2.10;;
36593;SDS011;22603;47.900;8.146;2022-12-07T09:07:44;4.70;;;1.70;;
36593;SDS011;22603;47.900;8.146;2022-12-07T09:10:35;4.20;;;1.65;;
36593;SDS011;22603;47.900;8.146;2022-12-07T09:13:22;3.78;;;1.65;;
36593;SDS011;22603;47.900;8.146;2022-12-07T09:16:11;5.18;;;1.73;;
36593;SDS011;22603;47.900;8.146;2022-12-07T09:18:58;4.20;;;1.70;;
36593;SDS011;22603;47.900;8.146;2022-12-07T09:21:44;5.37;;;1.73;;
36593;SDS011;22603;47.900;8.146;2022-12-07T09:24:33;6.10;;;2.07;;
36593;SDS011;22603;47.900;8.146;2022-12-07T09:27:20;6.07;;;1.93;;
36593;SDS011;22603;47.900;8.146;2022-12-07T09:30:08;3.77;;;1.60;;
36593;SDS011;22603;47.900;8.146;2022-12-07T09:32:57;4.00;;;1.70;;
36593;SDS011;22603;47.900;8.146;2022-12-07T09:35:44;4.73;;;1.70;;
36593;SDS011;22603;47.900;8.146;2022-12-07T09:38:31;3.93;;;1.70;;
36593;SDS011;22603;47.900;8.146;2022-12-07T09:41:18;4.20;;;1.70;;
36593;SDS011;22603;47.900;8.146;2022-12-07T09:44:09;4.60;;;1.70;;
36593;SDS011;22603;47.900;8.146;2022-12-07T09:46:58;4.60;;;2.17;;
36593;SDS011;22603;47.900;8.146;2022-12-07T09:49:47;3.30;;;1.43;;
36593;SDS011;22603;47.900;8.146;2022-12-07T09:52:34;4.20;;;1.77;;
36593;SDS011;22603;47.900;8.146;2022-12-07T09:55:24;4.77;;;1.73;;
36593;SDS011;22603;47.900;8.146;2022-12-07T09:58:17;3.97;;;1.67;;
36593;SDS011;22603;47.900;8.146;2022-12-07T10:01:09;4.80;;;1.70;;
36593;SDS011;22603;47.900;8.146;2022-12-07T10:04:01;4.22;;;1.73;;
36593;SDS011;22603;47.900;8.146;2022-12-07T10:06:56;4.80;;;2.08;;
36593;SDS011;22603;47.900;8.146;2022-12-07T10:09:53;5.35;;;2.08;;
36593;SDS011;22603;47.900;8.146;2022-12-07T10:13:41;5.63;;;1.95;;
36593;SDS011;22603;47.900;8.146;2022-12-07T10:16:38;4.70;;;1.58;;
36593;SDS011;22603;47.900;8.146;2022-12-07T10:19:42;4.95;;;1.60;;
36593;SDS011;22603;47.900;8.146;2022-12-07T10:22:30;4.03;;;1.70;;
36593;SDS011;22603;47.900;8.146;2022-12-07T10:25:18;5.00;;;1.80;;
36593;SDS011;22603;47.900;8.146;2022-12-07T10:28:11;5.63;;;1.98;;
36593;SDS011;22603;47.900;8.146;2022-12-07T10:31:01;5.53;;;1.92;;
36593;SDS011;22603;47.900;8.146;2022-12-07T10:33:51;4.70;;;1.60;;
36593;SDS011;22603;47.900;8.146;2022-12-07T10:36:39;4.97;;;1.80;;
36593;SDS011;22603;47.900;8.146;2022-12-07T10:39:27;7.07;;;2.53;;
36593;SDS011;22603;47.900;8.146;2022-12-07T10:42:16;4.30;;;1.90;;
36593;SDS011;22603;47.900;8.146;2022-12-07T10:45:07;4.65;;;1.70;;
36593;SDS011;22603;47.900;8.146;2022-12-07T10:47:58;4.90;;;1.88;;
36593;SDS011;22603;47.900;8.146;2022-12-07T10:50:57;4.45;;;1.73;;
36593;SDS011;22603;47.900;8.146;2022-12-07T10:53:54;4.63;;;1.73;;
36593;SDS011;22603;47.900;8.146;2022-12-07T10:57:00;4.22;;;1.65;;
36593;SDS011;22603;47.900;8.146;2022-12-07T11:00:04;5.10;;;1.70;;
36593;SDS011;22603;47.900;8.146;2022-12-07T11:03:05;4.50;;;1.57;;
36593;SDS011;22603;47.900;8.146;2022-12-07T11:06:07;4.25;;;1.65;;
36593;SDS011;22603;47.900;8.146;2022-12-07T11:09:05;3.80;;;1.60;;
36593;SDS011;22603;47.900;8.146;2022-12-07T11:12:37;3.45;;;1.40;;
36593;SDS011;22603;47.900;8.146;2022-12-07T11:15:40;2.97;;;1.27;;
36593;SDS011;22603;47.900;8.146;2022-12-07T11:18:40;4.33;;;1.60;;
36593;SDS011;22603;47.900;8.146;2022-12-07T11:21:37;4.47;;;1.60;;
36593;SDS011;22603;47.900;8.146;2022-12-07T11:24:32;3.87;;;1.80;;
36593;SDS011;22603;47.900;8.146;2022-12-07T11:27:29;4.70;;;1.70;;
36593;SDS011;22603;47.900;8.146;2022-12-07T11:30:26;3.73;;;1.47;;
36593;SDS011;22603;47.900;8.146;2022-12-07T11:33:20;3.93;;;1.27;;
36593;SDS011;22603;47.900;8.146;2022-12-07T11:36:21;4.00;;;1.60;;
36593;SDS011;22603;47.900;8.146;2022-12-07T11:39:20;5.53;;;1.50;;
36593;SDS011;22603;47.900;8.146;2022-12-07T11:42:13;4.10;;;1.60;;
36593;SDS011;22603;47.900;8.146;2022-12-07T11:45:10;3.57;;;1.30;;
36593;SDS011;22603;47.900;8.146;2022-12-07T11:48:01;3.53;;;1.20;;
36593;SDS011;22603;47.900;8.146;2022-12-07T11:50:52;3.00;;;1.10;;
36593;SDS011;22603;47.900;8.146;2022-12-07T11:53:44;3.43;;;1.37;;
36593;SDS011;22603;47.900;8.146;2022-12-07T11:56:35;3.63;;;1.40;;
36593;SDS011;22603;47.900;8.146;2022-12-07T11:59:23;3.80;;;1.33;;
36593;SDS011;22603;47.900;8.146;2022-12-07T12:02:20;2.33;;;1.20;;
36593;SDS011;22603;47.900;8.146;2022-12-07T12:05:15;2.37;;;1.20;;
36593;SDS011;22603;47.900;8.146;2022-12-07T12:08:06;2.70;;;1.30;;
36593;SDS011;22603;47.900;8.146;2022-12-07T12:11:25;3.73;;;1.47;;
36593;SDS011;22603;47.900;8.146;2022-12-07T12:14:31;3.43;;;1.40;;
36593;SDS011;22603;47.900;8.146;2022-12-07T12:17:47;5.50;;;1.40;;
36593;SDS011;22603;47.900;8.146;2022-12-07T12:20:47;3.47;;;1.37;;
36593;SDS011;22603;47.900;8.146;2022-12-07T12:23:38;4.67;;;1.60;;
36593;SDS011;22603;47.900;8.146;2022-12-07T12:26:29;4.30;;;1.60;;
36593;SDS011;22603;47.900;8.146;2022-12-07T12:29:20;3.50;;;1.40;;
36593;SDS011;22603;47.900;8.146;2022-12-07T12:32:13;3.53;;;1.30;;
36593;SDS011;22603;47.900;8.146;2022-12-07T12:45:05;2.47;;;0.97;;
36593;SDS011;22603;47.900;8.146;2022-12-07T12:48:09;5.10;;;1.30;;
36593;SDS011;22603;47.900;8.146;2022-12-07T12:54:24;3.47;;;1.30;;
36593;SDS011;22603;47.900;8.146;2022-12-07T12:57:17;3.27;;;1.30;;
36593;SDS011;22603;47.900;8.146;2022-12-07T13:00:35;3.73;;;1.10;;
36593;SDS011;22603;47.900;8.146;2022-12-07T13:03:23;2.80;;;1.27;;
36593;SDS011;22603;47.900;8.146;2022-12-07T13:06:19;3.20;;;1.27;;
36593;SDS011;22603;47.900;8.146;2022-12-07T13:09:21;3.77;;;1.53;;
36593;SDS011;22603;47.900;8.146;2022-12-07T13:12:12;4.57;;;1.60;;
36593;SDS011;22603;47.900;8.146;2022-12-07T13:15:02;3.47;;;1.37;;
36593;SDS011;22603;47.900;8.146;2022-12-07T13:18:00;6.07;;;1.80;;
36593;SDS011;22603;47.900;8.146;2022-12-07T13:20:49;6.07;;;1.83;;
36593;SDS011;22603;47.900;8.146;2022-12-07T13:23:51;3.97;;;1.53;;
36593;SDS011;22603;47.900;8.146;2022-12-07T13:26:43;4.10;;;1.83;;
36593;SDS011;22603;47.900;8.146;2022-12-07T13:29:30;3.77;;;1.47;;
36593;SDS011;22603;47.900;8.146;2022-12-07T13:32:24;4.93;;;1.40;;
36593;SDS011;22603;47.900;8.146;2022-12-07T13:35:29;3.20;;;1.23;;
36593;SDS011;22603;47.900;8.146;2022-12-07T13:38:22;4.43;;;1.50;;
36593;SDS011;22603;47.900;8.146;2022-12-07T13:41:13;3.47;;;1.40;;
36593;SDS011;22603;47.900;8.146;2022-12-07T13:44:05;3.20;;;1.40;;
36593;SDS011;22603;47.900;8.146;2022-12-07T13:46:59;3.93;;;1.40;;
36593;SDS011;22603;47.900;8.146;2022-12-07T13:49:53;3.13;;;1.37;;
36593;SDS011;22603;47.900;8.146;2022-12-07T13:52:43;4.63;;;1.90;;
36593;SDS011;22603;47.900;8.146;2022-12-07T13:55:30;3.20;;;1.47;;
36593;SDS011;22603;47.900;8.146;2022-12-07T13:58:18;4.47;;;1.47;;
36593;SDS011;22603;47.900;8.146;2022-12-07T14:01:07;5.77;;;1.73;;
36593;SDS011;22603;47.900;8.146;2022-12-07T14:03:55;4.30;;;1.40;;
36593;SDS011;22603;47.900;8.146;2022-12-07T14:06:47;4.43;;;1.40;;
36593;SDS011;22603;47.900;8.146;2022-12-07T14:09:34;4.30;;;1.50;;
36593;SDS011;22603;47.900;8.146;2022-12-07T14:12:23;4.17;;;1.47;;
36593;SDS011;22603;47.900;8.146;2022-12-07T14:15:15;3.43;;;1.30;;
36593;SDS011;22603;47.900;8.146;2022-12-07T14:21:14;4.77;;;1.63;;
36593;SDS011;22603;47.900;8.146;2022-12-07T14:24:11;3.83;;;1.40;;
36593;SDS011;22603;47.900;8.146;2022-12-07T14:27:03;3.83;;;1.70;;
36593;SDS011;22603;47.900;8.146;2022-12-07T14:30:14;3.93;;;1.40;;
36593;SDS011;22603;47.900;8.146;2022-12-07T14:33:03;3.17;;;1.40;;
36593;SDS011;22603;47.900;8.146;2022-12-07T14:35:53;2.93;;;1.20;;
36593;SDS011;22603;47.900;8.146;2022-12-07T14:38:43;4.70;;;1.70;;
36593;SDS011;22603;47.900;8.146;2022-12-07T14:41:30;4.37;;;1.50;;
36593;SDS011;22603;47.900;8.146;2022-12-07T14:44:34;3.03;;;1.53;;
36593;SDS011;22603;47.900;8.146;2022-12-07T14:47:22;4.63;;;1.43;;
36593;SDS011;22603;47.900;8.146;2022-12-07T14:50:29;4.53;;;1.70;;
36593;SDS011;22603;47.900;8.146;2022-12-07T14:53:25;3.63;;;1.60;;
36593;SDS011;22603;47.900;8.146;2022-12-07T14:56:16;3.60;;;1.33;;
36593;SDS011;22603;47.900;8.146;2022-12-07T14:59:03;3.80;;;1.50;;
36593;SDS011;22603;47.900;8.146;2022-12-07T15:01:50;5.77;;;1.60;;
36593;SDS011;22603;47.900;8.146;2022-12-07T15:04:38;5.30;;;1.80;;
36593;SDS011;22603;47.900;8.146;2022-12-07T15:07:26;4.70;;;1.80;;
36593;SDS011;22603;47.900;8.146;2022-12-07T15:10:17;3.83;;;1.60;;
36593;SDS011;22603;47.900;8.146;2022-12-07T15:13:08;5.07;;;1.77;;
36593;SDS011;22603;47.900;8.146;2022-12-07T15:16:10;5.43;;;1.67;;
36593;SDS011;22603;47.900;8.146;2022-12-07T15:19:05;5.87;;;2.33;;
36593;SDS011;22603;47.900;8.146;2022-12-07T15:22:13;4.67;;;1.97;;
36593;SDS011;22603;47.900;8.146;2022-12-07T15:25:00;4.40;;;1.87;;
36593;SDS011;22603;47.900;8.146;2022-12-07T15:27:51;6.83;;;2.07;;
36593;SDS011;22603;47.900;8.146;2022-12-07T15:30:38;4.13;;;1.67;;
36593;SDS011;22603;47.900;8.146;2022-12-07T15:33:26;3.57;;;1.63;;
36593;SDS011;22603;47.900;8.146;2022-12-07T15:36:15;5.40;;;2.10;;
36593;SDS011;22603;47.900;8.146;2022-12-07T15:39:06;6.33;;;1.90;;
36593;SDS011;22603;47.900;8.146;2022-12-07T15:41:59;4.83;;;1.67;;
36593;SDS011;22603;47.900;8.146;2022-12-07T15:44:49;5.20;;;1.67;;
36593;SDS011;22603;47.900;8.146;2022-12-07T15:47:51;5.30;;;1.60;;
36593;SDS011;22603;47.900;8.146;2022-12-07T15:51:03;7.17;;;2.10;;
36593;SDS011;22603;47.900;8.146;2022-12-07T15:53:51;5.73;;;2.10;;
36593;SDS011;22603;47.900;8.146;2022-12-07T15:56:38;7.67;;;2.37;;
36593;SDS011;22603;47.900;8.146;2022-12-07T15:59:25;6.73;;;2.60;;
36593;SDS011;22603;47.900;8.146;2022-12-07T16:02:21;8.37;;;2.53;;
36593;SDS011;22603;47.900;8.146;2022-12-07T16:05:24;6.20;;;2.77;;
36593;SDS011;22603;47.900;8.146;2022-12-07T16:08:29;8.10;;;2.30;;
36593;SDS011;22603;47.900;8.146;2022-12-07T16:11:20;5.70;;;2.40;;
36593;SDS011;22603;47.900;8.146;2022-12-07T16:14:07;7.67;;;2.57;;
36593;SDS011;22603;47.900;8.146;2022-12-07T16:16:55;7.30;;;2.50;;
36593;SDS011;22603;47.900;8.146;2022-12-07T16:19:43;10.00;;;3.00;;
36593;SDS011;22603;47.900;8.146;2022-12-07T16:22:30;6.10;;;2.77;;
36593;SDS011;22603;47.900;8.146;2022-12-07T16:25:17;4.87;;;1.93;;
36593;SDS011;22603;47.900;8.146;2022-12-07T16:28:04;7.07;;;2.53;;
36593;SDS011;22603;47.900;8.146;2022-12-07T16:30:59;7.27;;;2.60;;
36593;SDS011;22603;47.900;8.146;2022-12-07T16:33:48;5.17;;;2.00;;
36593;SDS011;22603;47.900;8.146;2022-12-07T16:36:37;6.73;;;2.53;;
36593;SDS011;22603;47.900;8.146;2022-12-07T16:39:44;6.10;;;2.10;;
36593;SDS011;22603;47.900;8.146;2022-12-07T16:42:32;6.70;;;2.20;;
36593;SDS011;22603;47.900;8.146;2022-12-07T16:45:20;6.77;;;2.27;;
36593;SDS011;22603;47.900;8.146;2022-12-07T16:48:07;8.23;;;3.03;;
36593;SDS011;22603;47.900;8.146;2022-12-07T16:50:59;8.93;;;3.07;;
36593;SDS011;22603;47.900;8.146;2022-12-07T16:54:15;10.83;;;3.97;;
36593;SDS011;22603;47.900;8.146;2022-12-07T16:57:02;12.47;;;4.10;;
36593;SDS011;22603;47.900;8.146;2022-12-07T16:59:49;9.20;;;3.53;;
36593;SDS011;22603;47.900;8.146;2022-12-07T17:02:36;10.00;;;3.77;;
36593;SDS011;22603;47.900;8.146;2022-12-07T17:05:24;10.90;;;3.60;;
36593;SDS011;22603;47.900;8.146;2022-12-07T17:08:13;7.17;;;2.77;;
36593;SDS011;22603;47.900;8.146;2022-12-07T17:11:01;6.80;;;1.90;;
36593;SDS011;22603;47.900;8.146;2022-12-07T17:13:56;5.53;;;2.13;;
36593;SDS011;22603;47.900;8.146;2022-12-07T17:17:00;4.40;;;1.90;;
36593;SDS011;22603;47.900;8.146;2022-12-07T17:19:49;5.50;;;2.13;;
36593;SDS011;22603;47.900;8.146;2022-12-07T17:22:36;7.83;;;2.07;;
36593;SDS011;22603;47.900;8.146;2022-12-07T17:25:23;7.37;;;2.80;;
36593;SDS011;22603;47.900;8.146;2022-12-07T17:28:11;6.20;;;2.23;;
36593;SDS011;22603;47.900;8.146;2022-12-07T17:30:59;8.70;;;3.47;;
36593;SDS011;22603;47.900;8.146;2022-12-07T17:33:46;9.03;;;3.77;;